Time;durP1;ratioP1;P1;durP2;ratioP2;P2;SDS_P1;SDS_P2;PMS_P1;PMS_P2;Temp;Humidity;BMP_temperature;BMP_pressure;BME280_temperature;BME280_humidity;BME280_pressure;Samples;Min_cycle;Max_cycle;Signal;HPM_P1;HPM_P2
2022/01/28 00:02:46;;;;;;;7.22;4.55;;;;;;;;;;5015562;28;20046;-71
2022/01/28 00:04:57;;;;;;;7.40;4.85;;;;;;;;;;5015774;28;20436;-71
2022/01/28 00:07:25;;;;;;;6.13;4.28;;;;;;;;;;5015708;28;20045;-71
2022/01/28 00:09:52;;;;;;;9.63;4.22;;;;;;;;;;5014487;28;20132;-75
2022/01/28 00:12:20;;;;;;;5.82;3.90;;;;;;;;;;5015836;28;20544;-72
2022/01/28 00:39:26;;;;;;;6.85;4.50;;;;;;;;;;5015104;28;20479;-70
2022/01/28 00:41:53;;;;;;;8.30;4.72;;;;;;;;;;5014932;28;20493;-75
2022/01/28 00:44:22;;;;;;;6.68;4.60;;;;;;;;;;5015291;28;20381;-72
2022/01/28 00:46:49;;;;;;;5.95;4.13;;;;;;;;;;5015284;28;20382;-67
2022/01/28 00:49:17;;;;;;;10.35;4.93;;;;;;;;;;5015386;28;20046;-75
2022/01/28 00:51:45;;;;;;;10.38;4.72;;;;;;;;;;5015105;28;20042;-72
2022/01/28 00:54:12;;;;;;;6.47;4.40;;;;;;;;;;5014500;28;20069;-71
2022/01/28 00:56:40;;;;;;;6.75;4.35;;;;;;;;;;5014781;28;20073;-71
2022/01/28 00:59:08;;;;;;;10.63;4.57;;;;;;;;;;5013814;28;20540;-71
2022/01/28 01:01:35;;;;;;;6.43;4.30;;;;;;;;;;5012873;28;20046;-72
2022/01/28 01:04:03;;;;;;;9.85;4.93;;;;;;;;;;5013966;28;20385;-71
2022/01/28 01:06:31;;;;;;;5.97;3.75;;;;;;;;;;5014479;28;20092;-72
2022/01/28 01:08:59;;;;;;;5.55;4.18;;;;;;;;;;5014521;28;20045;-67
2022/01/28 01:11:28;;;;;;;7.68;4.78;;;;;;;;;;5014931;28;20038;-75
2022/01/28 01:13:56;;;;;;;7.20;4.50;;;;;;;;;;5014875;28;20042;-71
2022/01/28 01:16:30;;;;;;;8.77;4.60;;;;;;;;;;5014663;28;20037;-71
2022/01/28 01:19:23;;;;;;;6.78;4.30;;;;;;;;;;5014199;28;20136;-71
2022/01/28 01:21:46;;;;;;;7.38;4.47;;;;;;;;;;5013880;28;20042;-75
2022/01/28 01:24:22;;;;;;;7.53;4.40;;;;;;;;;;5014556;28;20041;-72
2022/01/28 01:26:49;;;;;;;7.82;4.50;;;;;;;;;;5014037;28;20037;-71
2022/01/28 01:29:20;;;;;;;7.70;4.60;;;;;;;;;;5014332;28;20121;-71
2022/01/28 01:31:49;;;;;;;7.22;4.72;;;;;;;;;;5013992;28;20046;-72
2022/01/28 01:34:20;;;;;;;8.70;4.32;;;;;;;;;;5014349;28;20046;-75
2022/01/28 01:36:48;;;;;;;9.50;4.70;;;;;;;;;;5014125;28;20046;-68
2022/01/28 01:39:21;;;;;;;9.27;4.50;;;;;;;;;;5014364;28;20045;-67
2022/01/28 01:41:58;;;;;;;5.65;3.72;;;;;;;;;;5012282;28;20046;-71
2022/01/28 01:52:24;;;;;;;7.00;4.15;;;;;;;;;;5014059;28;20132;-75
2022/01/28 01:54:52;;;;;;;9.93;4.22;;;;;;;;;;5012662;28;20050;-72
2022/01/28 01:57:20;;;;;;;5.43;3.58;;;;;;;;;;5012803;28;20046;-71
2022/01/28 01:59:48;;;;;;;4.85;3.80;;;;;;;;;;5014155;28;20046;-75
2022/01/28 02:02:15;;;;;;;5.60;3.65;;;;;;;;;;5013630;28;20049;-71
2022/01/28 02:04:43;;;;;;;7.35;3.78;;;;;;;;;;5013779;28;20038;-67
2022/01/28 02:07:13;;;;;;;5.28;3.90;;;;;;;;;;5013446;28;20044;-75
2022/01/28 02:09:41;;;;;;;6.03;4.07;;;;;;;;;;5013680;28;20046;-67
2022/01/28 02:12:08;;;;;;;5.93;3.80;;;;;;;;;;5013957;28;20128;-75
2022/01/28 02:14:36;;;;;;;7.40;3.88;;;;;;;;;;5013579;28;20046;-75
2022/01/28 02:17:04;;;;;;;4.32;3.58;;;;;;;;;;5012394;28;20156;-75
2022/01/28 02:19:32;;;;;;;5.28;3.60;;;;;;;;;;5012897;28;20501;-71
2022/01/28 02:22:00;;;;;;;6.22;4.25;;;;;;;;;;5013770;28;20044;-75
2022/01/28 02:24:47;;;;;;;7.07;4.25;;;;;;;;;;5012290;28;20041;-70
2022/01/28 02:27:17;;;;;;;4.63;3.70;;;;;;;;;;5013403;28;20117;-70
2022/01/28 02:29:45;;;;;;;7.18;4.18;;;;;;;;;;5012645;28;20447;-67
2022/01/28 02:32:13;;;;;;;6.45;3.80;;;;;;;;;;5013205;28;20460;-68
2022/01/28 02:34:42;;;;;;;5.30;3.97;;;;;;;;;;5012356;28;20456;-71
2022/01/28 02:37:10;;;;;;;5.38;3.92;;;;;;;;;;5012935;28;20046;-68
2022/01/28 02:39:37;;;;;;;5.45;4.20;;;;;;;;;;5012772;28;20497;-71
2022/01/28 02:42:27;;;;;;;6.22;4.30;;;;;;;;;;5012362;28;20041;-75
2022/01/28 02:44:56;;;;;;;6.85;3.83;;;;;;;;;;5012867;28;20045;-71
2022/01/28 02:47:34;;;;;;;7.13;4.10;;;;;;;;;;5012992;28;20133;-72
2022/01/28 02:50:03;;;;;;;6.10;3.95;;;;;;;;;;5013680;28;20038;-75
2022/01/28 02:52:44;;;;;;;9.93;3.67;;;;;;;;;;5012820;28;20387;-67
2022/01/28 02:55:13;;;;;;;6.13;3.67;;;;;;;;;;5012882;28;20116;-75
2022/01/28 02:57:51;;;;;;;5.82;3.47;;;;;;;;;;5011683;28;20084;-71
2022/01/28 03:00:19;;;;;;;5.25;3.70;;;;;;;;;;5013281;28;20046;-70
2022/01/28 03:02:47;;;;;;;4.82;3.53;;;;;;;;;;5011689;28;20136;-70
2022/01/28 03:05:31;;;;;;;4.78;3.70;;;;;;;;;;5013060;28;20046;-76
2022/01/28 03:08:01;;;;;;;4.70;3.17;;;;;;;;;;5013022;28;20398;-71
2022/01/28 03:10:40;;;;;;;4.65;3.10;;;;;;;;;;5012708;28;20049;-72
2022/01/28 03:15:38;;;;;;;5.65;3.17;;;;;;;;;;5011683;28;20046;-71
2022/01/28 03:18:22;;;;;;;6.20;3.80;;;;;;;;;;5012455;28;20042;-71
2022/01/28 03:23:20;;;;;;;7.97;3.60;;;;;;;;;;5011345;28;20054;-75
2022/01/28 03:25:48;;;;;;;4.85;3.80;;;;;;;;;;5012840;28;20038;-75
2022/01/28 03:28:19;;;;;;;5.40;3.45;;;;;;;;;;5012924;28;20064;-71
2022/01/28 03:30:47;;;;;;;7.28;3.35;;;;;;;;;;5012286;28;20042;-75
2022/01/28 03:33:14;;;;;;;4.20;3.08;;;;;;;;;;5012783;28;20046;-71
2022/01/28 03:35:42;;;;;;;5.03;3.08;;;;;;;;;;5011198;28;20048;-71
2022/01/28 03:38:12;;;;;;;5.20;3.40;;;;;;;;;;5012829;28;20050;-75
2022/01/28 03:40:42;;;;;;;5.03;3.45;;;;;;;;;;5012704;28;20046;-75
2022/01/28 03:43:09;;;;;;;6.35;3.90;;;;;;;;;;5012223;28;20037;-67
2022/01/28 03:45:37;;;;;;;8.95;4.70;;;;;;;;;;5015417;28;20121;-71
2022/01/28 03:48:04;;;;;;;4.97;3.50;;;;;;;;;;5015074;28;20057;-70
2022/01/28 03:50:34;;;;;;;5.03;3.30;;;;;;;;;;5016459;28;20458;-71
2022/01/28 03:53:01;;;;;;;8.00;3.80;;;;;;;;;;5015097;28;20038;-71
2022/01/28 03:55:29;;;;;;;6.85;3.42;;;;;;;;;;5015374;28;20100;-71
2022/01/28 03:57:57;;;;;;;6.70;3.75;;;;;;;;;;5015836;28;20509;-67
2022/01/28 04:00:29;;;;;;;3.40;2.80;;;;;;;;;;5015835;28;20049;-71
2022/01/28 04:03:11;;;;;;;5.57;2.90;;;;;;;;;;5015894;28;20038;-71
2022/01/28 04:13:51;;;;;;;3.42;2.33;;;;;;;;;;5015696;28;20044;-75
2022/01/28 04:18:56;;;;;;;6.10;2.13;;;;;;;;;;5015268;28;20044;-75
2022/01/28 04:21:24;;;;;;;3.90;2.38;;;;;;;;;;5015418;28;20516;-75
2022/01/28 04:23:52;;;;;;;2.50;2.15;;;;;;;;;;5015448;28;20413;-71
2022/01/28 04:26:19;;;;;;;2.53;2.22;;;;;;;;;;5015640;28;20531;-75
2022/01/28 04:28:47;;;;;;;4.07;2.53;;;;;;;;;;5015297;28;20497;-71
2022/01/28 04:31:14;;;;;;;3.58;2.50;;;;;;;;;;5015380;28;20450;-71
2022/01/28 04:33:42;;;;;;;4.35;2.90;;;;;;;;;;5015329;28;20038;-67
2022/01/28 04:36:12;;;;;;;6.28;2.40;;;;;;;;;;5015392;28;20580;-75
2022/01/28 04:41:24;;;;;;;;;;;;;;;;;;5015607;28;20034;-71
2022/01/28 04:43:59;;;;;;;3.15;1.85;;;;;;;;;;5013711;28;19921;-71
2022/01/28 04:46:37;;;;;;;5.55;2.53;;;;;;;;;;5013737;28;20038;-75
2022/01/28 05:02:35;;;;;;;3.53;2.10;;;;;;;;;;5014662;28;20046;-75
2022/01/28 05:07:59;;;;;;;6.18;2.58;;;;;;;;;;5014807;28;20121;-71
2022/01/28 05:10:49;;;;;;;8.15;2.50;;;;;;;;;;5012587;28;20052;-71
2022/01/28 05:27:09;;;;;;;3.00;1.93;;;;;;;;;;5014463;28;20121;-71
2022/01/28 05:29:39;;;;;;;2.03;1.67;;;;;;;;;;5013237;28;20422;-67
2022/01/28 05:32:10;;;;;;;4.57;2.03;;;;;;;;;;5014208;28;20128;-72
2022/01/28 05:34:39;;;;;;;7.60;4.70;;;;;;;;;;5014510;28;20448;-76
2022/01/28 05:37:07;;;;;;;6.47;2.78;;;;;;;;;;5013042;28;20046;-75
2022/01/28 05:39:35;;;;;;;5.38;2.60;;;;;;;;;;5014306;28;20401;-68
2022/01/28 05:42:02;;;;;;;4.55;2.70;;;;;;;;;;5014014;28;20381;-72
2022/01/28 05:44:30;;;;;;;5.90;2.45;;;;;;;;;;5014060;28;20046;-72
2022/01/28 05:47:02;;;;;;;7.72;2.63;;;;;;;;;;5016770;28;20038;-68
2022/01/28 05:49:30;;;;;;;4.68;2.95;;;;;;;;;;5014135;28;20046;-72
2022/01/28 05:51:58;;;;;;;4.35;3.00;;;;;;;;;;5013980;28;20460;-67
2022/01/28 05:54:26;;;;;;;4.30;3.40;;;;;;;;;;5013554;28;20053;-75
2022/01/28 05:56:53;;;;;;;4.75;3.20;;;;;;;;;;5012539;28;20064;-67
2022/01/28 05:59:21;;;;;;;5.32;3.17;;;;;;;;;;5013762;28;20489;-68
2022/01/28 06:01:48;;;;;;;4.20;2.90;;;;;;;;;;5009956;28;20141;-75
2022/01/28 06:04:16;;;;;;;4.25;2.78;;;;;;;;;;5013821;28;20381;-68
2022/01/28 06:06:44;;;;;;;5.85;2.60;;;;;;;;;;5012259;28;20052;-67
2022/01/28 06:09:11;;;;;;;6.15;2.88;;;;;;;;;;5012794;28;20417;-75
2022/01/28 06:11:39;;;;;;;4.10;3.30;;;;;;;;;;5012475;28;20030;-67
2022/01/28 06:14:07;;;;;;;6.82;3.30;;;;;;;;;;5012214;28;20049;-68
2022/01/28 06:16:34;;;;;;;5.15;3.20;;;;;;;;;;5013098;28;20420;-77
2022/01/28 06:19:02;;;;;;;5.95;3.33;;;;;;;;;;5012829;28;20478;-70
2022/01/28 06:21:29;;;;;;;5.93;3.00;;;;;;;;;;5012019;28;20045;-71
2022/01/28 06:23:57;;;;;;;5.18;3.10;;;;;;;;;;5012139;28;20137;-71
2022/01/28 06:26:25;;;;;;;3.90;2.75;;;;;;;;;;5012996;28;20042;-71
2022/01/28 06:28:53;;;;;;;3.92;3.08;;;;;;;;;;5012661;28;20465;-71
2022/01/28 06:31:21;;;;;;;4.43;3.28;;;;;;;;;;5020960;28;20377;-77
2022/01/28 06:33:49;;;;;;;8.88;2.90;;;;;;;;;;5032194;28;20045;-67
2022/01/28 06:36:17;;;;;;;5.47;2.90;;;;;;;;;;5018213;28;20553;-67
2022/01/28 06:38:44;;;;;;;3.97;2.70;;;;;;;;;;5012217;28;20163;-72
2022/01/28 06:41:12;;;;;;;4.55;2.80;;;;;;;;;;5012941;28;20054;-77
2022/01/28 06:43:39;;;;;;;5.72;3.20;;;;;;;;;;5011589;28;20389;-76
2022/01/28 06:46:07;;;;;;;5.47;3.40;;;;;;;;;;4995444;28;20140;-72
2022/01/28 06:48:35;;;;;;;4.20;2.88;;;;;;;;;;5012500;28;20036;-76
2022/01/28 06:51:02;;;;;;;5.25;3.70;;;;;;;;;;5013295;28;20038;-69
2022/01/28 06:53:30;;;;;;;12.93;3.72;;;;;;;;;;5012587;28;20046;-72
2022/01/28 06:55:57;;;;;;;3.88;3.40;;;;;;;;;;5012460;28;20405;-68
2022/01/28 06:58:25;;;;;;;5.25;3.25;;;;;;;;;;5012581;28;20049;-67
2022/01/28 07:00:52;;;;;;;5.70;4.78;;;;;;;;;;5012660;28;20049;-76
2022/01/28 07:03:20;;;;;;;6.13;3.47;;;;;;;;;;5012837;28;20046;-77
2022/01/28 07:05:48;;;;;;;9.05;3.80;;;;;;;;;;5012765;28;20042;-67
2022/01/28 07:08:15;;;;;;;9.95;4.57;;;;;;;;;;5012599;28;20502;-77
2022/01/28 07:10:43;;;;;;;13.38;4.15;;;;;;;;;;5012656;28;20057;-77
2022/01/28 07:13:13;;;;;;;9.60;4.55;;;;;;;;;;5013029;28;20077;-77
2022/01/28 07:15:42;;;;;;;13.95;4.13;;;;;;;;;;5012791;28;20129;-70
2022/01/28 07:18:10;;;;;;;12.02;4.68;;;;;;;;;;5012709;28;20061;-67
2022/01/28 07:20:38;;;;;;;8.95;5.18;;;;;;;;;;5017099;28;20382;-72
2022/01/28 07:23:05;;;;;;;13.50;6.15;;;;;;;;;;5016188;28;20038;-77
2022/01/28 07:25:35;;;;;;;10.02;6.43;;;;;;;;;;5015167;28;20052;-72
2022/01/28 07:28:03;;;;;;;14.77;7.82;;;;;;;;;;5016761;28;20121;-78
2022/01/28 07:30:31;;;;;;;13.82;7.72;;;;;;;;;;5015841;28;20049;-67
2022/01/28 07:33:00;;;;;;;18.02;8.50;;;;;;;;;;5016352;28;20121;-72
2022/01/28 07:35:28;;;;;;;15.20;7.30;;;;;;;;;;5016062;28;20208;-73
2022/01/28 07:37:57;;;;;;;13.50;6.57;;;;;;;;;;5016019;28;20049;-69
2022/01/28 07:40:25;;;;;;;12.85;5.78;;;;;;;;;;5013845;28;20044;-68
2022/01/28 07:42:53;;;;;;;10.68;5.22;;;;;;;;;;5015355;28;20104;-76
2022/01/28 07:45:20;;;;;;;12.30;6.00;;;;;;;;;;5015521;28;20428;-68
2022/01/28 07:47:48;;;;;;;12.95;7.50;;;;;;;;;;5015789;28;20127;-68
2022/01/28 07:50:15;;;;;;;8.55;4.18;;;;;;;;;;5014303;28;20044;-70
2022/01/28 07:52:43;;;;;;;5.32;3.67;;;;;;;;;;5015182;28;20037;-72
2022/01/28 07:55:12;;;;;;;5.60;3.67;;;;;;;;;;5013544;28;20421;-70
2022/01/28 07:57:40;;;;;;;8.20;4.28;;;;;;;;;;4997709;28;20053;-72
2022/01/28 08:00:09;;;;;;;9.73;3.88;;;;;;;;;;5015691;28;20432;-68
2022/01/28 08:02:42;;;;;;;8.48;4.60;;;;;;;;;;5015175;28;20042;-78
2022/01/28 08:05:10;;;;;;;11.25;6.57;;;;;;;;;;5013587;28;20041;-73
2022/01/28 08:07:38;;;;;;;15.23;5.07;;;;;;;;;;5014787;28;20056;-72
2022/01/28 08:10:06;;;;;;;6.15;3.60;;;;;;;;;;5015353;28;20056;-69
2022/01/28 08:12:43;;;;;;;5.30;3.40;;;;;;;;;;5015230;28;20046;-68
2022/01/28 08:15:10;;;;;;;7.43;4.13;;;;;;;;;;5015348;28;20054;-73
2022/01/28 08:17:38;;;;;;;5.38;3.83;;;;;;;;;;5015439;28;20046;-73
2022/01/28 08:20:06;;;;;;;10.85;4.32;;;;;;;;;;4997220;28;20046;-78
2022/01/28 08:22:43;;;;;;;6.47;3.80;;;;;;;;;;5015030;28;20488;-73
2022/01/28 08:25:11;;;;;;;7.53;4.25;;;;;;;;;;5011839;28;20109;-68
2022/01/28 08:27:39;;;;;;;7.93;4.53;;;;;;;;;;5003799;28;20034;-70
2022/01/28 08:30:06;;;;;;;9.05;4.90;;;;;;;;;;5005397;28;20497;-72
2022/01/28 08:32:34;;;;;;;12.55;4.78;;;;;;;;;;5004318;28;20057;-78
2022/01/28 08:35:02;;;;;;;10.30;5.03;;;;;;;;;;5004791;28;20409;-73
2022/01/28 08:37:29;;;;;;;7.55;4.43;;;;;;;;;;5009120;28;20058;-70
2022/01/28 08:39:57;;;;;;;5.97;3.50;;;;;;;;;;5004524;28;20393;-78
2022/01/28 08:42:24;;;;;;;4.25;2.50;;;;;;;;;;5006605;28;20557;-72
2022/01/28 08:44:52;;;;;;;8.13;2.88;;;;;;;;;;5009568;28;20082;-71
2022/01/28 08:47:19;;;;;;;7.57;3.00;;;;;;;;;;5004447;28;20129;-70
2022/01/28 08:49:47;;;;;;;6.72;2.97;;;;;;;;;;5004662;28;20372;-73
2022/01/28 08:52:15;;;;;;;7.70;3.65;;;;;;;;;;5007623;28;20599;-70
2022/01/28 08:54:42;;;;;;;7.43;3.00;;;;;;;;;;5003788;28;20050;-70
2022/01/28 08:57:10;;;;;;;5.85;3.63;;;;;;;;;;5005761;28;20049;-69
2022/01/28 08:59:39;;;;;;;8.55;3.50;;;;;;;;;;5006104;28;20053;-68
2022/01/28 09:02:07;;;;;;;4.38;3.15;;;;;;;;;;4997535;28;20050;-72
2022/01/28 09:04:35;;;;;;;7.30;3.53;;;;;;;;;;4994951;28;20045;-78
2022/01/28 09:07:03;;;;;;;5.97;3.47;;;;;;;;;;5003415;28;20048;-72
2022/01/28 09:09:31;;;;;;;5.30;3.47;;;;;;;;;;4994598;28;20053;-68
2022/01/28 09:14:26;;;;;;;7.95;4.88;;;;;;;;;;4994955;28;20048;-70
2022/01/28 09:16:54;;;;;;;5.55;3.72;;;;;;;;;;4994976;28;20046;-78
2022/01/28 09:19:22;;;;;;;9.13;3.78;;;;;;;;;;4994393;28;20042;-72
2022/01/28 09:21:51;;;;;;;5.70;3.72;;;;;;;;;;4995068;28;20038;-78
2022/01/28 09:24:18;;;;;;;6.28;4.15;;;;;;;;;;4994652;28;20046;-78
2022/01/28 09:26:46;;;;;;;11.35;4.00;;;;;;;;;;4994616;28;20046;-70
2022/01/28 09:29:13;;;;;;;3.80;2.65;;;;;;;;;;5024116;28;20445;-70
2022/01/28 09:31:41;;;;;;;7.05;3.28;;;;;;;;;;5021784;28;20050;-68
2022/01/28 09:34:08;;;;;;;4.97;2.78;;;;;;;;;;5025060;28;20045;-69
2022/01/28 09:36:36;;;;;;;3.45;2.20;;;;;;;;;;5019956;28;20041;-78
2022/01/28 09:39:06;;;;;;;3.47;2.25;;;;;;;;;;5022292;28;20404;-79
2022/01/28 09:41:36;;;;;;;5.55;2.35;;;;;;;;;;5021052;28;20044;-68
2022/01/28 09:44:08;;;;;;;6.68;3.20;;;;;;;;;;5012838;28;20520;-73
2022/01/28 09:46:35;;;;;;;6.38;2.80;;;;;;;;;;5027311;28;20061;-70
2022/01/28 09:49:03;;;;;;;4.47;3.00;;;;;;;;;;5023879;28;20053;-79
2022/01/28 09:51:31;;;;;;;5.78;2.95;;;;;;;;;;5022578;28;20030;-79
2022/01/28 09:53:59;;;;;;;4.60;2.50;;;;;;;;;;5011354;28;20046;-75
2022/01/28 09:56:26;;;;;;;3.90;2.60;;;;;;;;;;5012610;28;20486;-73
2022/01/28 09:58:53;;;;;;;2.83;2.45;;;;;;;;;;5013989;28;20041;-73
2022/01/28 10:01:21;;;;;;;4.22;2.63;;;;;;;;;;5014256;28;20046;-81
2022/01/28 10:03:59;;;;;;;4.72;2.30;;;;;;;;;;5013536;28;20038;-67
2022/01/28 10:06:31;;;;;;;5.10;2.25;;;;;;;;;;5013305;28;20602;-69
2022/01/28 10:09:01;;;;;;;4.72;2.25;;;;;;;;;;5089584;23;20142;-66
2022/01/28 10:11:29;;;;;;;4.70;2.10;;;;;;;;;;4993409;28;20041;-67
2022/01/28 10:14:07;;;;;;;5.68;1.98;;;;;;;;;;4993466;28;20038;-67
2022/01/28 10:16:34;;;;;;;3.58;2.00;;;;;;;;;;4993312;28;20052;-68
2022/01/28 10:19:03;;;;;;;2.75;2.20;;;;;;;;;;4992516;28;20041;-67
2022/01/28 10:21:36;;;;;;;3.95;2.03;;;;;;;;;;4983936;28;20046;-65
2022/01/28 10:24:07;;;;;;;2.90;1.90;;;;;;;;;;4990309;28;20038;-67
2022/01/28 10:26:37;;;;;;;4.35;2.35;;;;;;;;;;4992922;28;20129;-66
2022/01/28 10:29:06;;;;;;;2.83;2.00;;;;;;;;;;4992518;28;20401;-66
2022/01/28 10:31:37;;;;;;;4.25;2.22;;;;;;;;;;4989675;28;20552;-67
2022/01/28 10:34:16;;;;;;;3.28;2.30;;;;;;;;;;4992942;28;20070;-66
2022/01/28 10:36:44;;;;;;;3.63;2.30;;;;;;;;;;4991285;28;20038;-66
2022/01/28 10:39:16;;;;;;;4.80;2.80;;;;;;;;;;4992533;28;20557;-68
2022/01/28 10:42:03;;;;;;;5.70;3.17;;;;;;;;;;4992759;28;20066;-67
2022/01/28 10:44:31;;;;;;;4.38;3.22;;;;;;;;;;4992005;28;20064;-66
2022/01/28 10:47:06;;;;;;;4.07;3.45;;;;;;;;;;4992567;28;20062;-68
2022/01/28 10:49:34;;;;;;;8.23;4.35;;;;;;;;;;4990577;28;20406;-68
2022/01/28 10:52:05;;;;;;;5.97;3.45;;;;;;;;;;4992578;28;20038;-66
2022/01/28 10:54:32;;;;;;;4.53;3.58;;;;;;;;;;4993632;28;20561;-67
2022/01/28 10:57:01;;;;;;;6.40;3.30;;;;;;;;;;4995898;28;20046;-66
2022/01/28 10:59:30;;;;;;;8.27;3.25;;;;;;;;;;4996293;28;20109;-68
2022/01/28 11:01:58;;;;;;;4.57;2.92;;;;;;;;;;4996465;28;20042;-66
2022/01/28 11:04:26;;;;;;;4.68;2.65;;;;;;;;;;4996284;28;20031;-67
2022/01/28 11:06:56;;;;;;;4.63;3.08;;;;;;;;;;4995928;28;20056;-66
2022/01/28 11:09:24;;;;;;;5.70;2.90;;;;;;;;;;4995582;28;20188;-67
2022/01/28 11:11:51;;;;;;;5.57;2.67;;;;;;;;;;4995848;28;20034;-66
2022/01/28 11:14:19;;;;;;;4.80;2.72;;;;;;;;;;4995902;28;20042;-68
2022/01/28 11:16:47;;;;;;;4.13;2.60;;;;;;;;;;4996230;28;20044;-67
2022/01/28 11:19:17;;;;;;;5.40;2.90;;;;;;;;;;4991401;28;20049;-68
2022/01/28 11:21:47;;;;;;;3.30;2.67;;;;;;;;;;4977271;28;20043;-67
2022/01/28 11:24:34;;;;;;;2.95;2.40;;;;;;;;;;4987763;28;20125;-68
2022/01/28 11:27:05;;;;;;;3.85;2.20;;;;;;;;;;4996289;28;20034;-67
2022/01/28 11:29:33;;;;;;;4.80;2.17;;;;;;;;;;4995864;28;20474;-66
2022/01/28 11:32:14;;;;;;;4.80;2.47;;;;;;;;;;4993202;28;20489;-68
2022/01/28 11:34:56;;;;;;;6.28;2.40;;;;;;;;;;4994790;28;20049;-67
2022/01/28 11:37:30;;;;;;;3.90;2.40;;;;;;;;;;4996140;28;20050;-67
2022/01/28 11:40:08;;;;;;;3.30;2.15;;;;;;;;;;4996083;28;20425;-68
2022/01/28 11:42:37;;;;;;;3.10;2.05;;;;;;;;;;4995857;28;20393;-66
2022/01/28 11:45:09;;;;;;;2.60;2.40;;;;;;;;;;4995934;28;20065;-68
2022/01/28 11:47:39;;;;;;;6.80;2.40;;;;;;;;;;4996036;28;20046;-67
2022/01/28 11:50:09;;;;;;;4.65;2.40;;;;;;;;;;4996493;28;20053;-68
2022/01/28 11:52:41;;;;;;;4.13;2.22;;;;;;;;;;4996215;28;20053;-66
2022/01/28 11:55:15;;;;;;;2.77;2.43;;;;;;;;;;4996008;28;20068;-67
2022/01/28 11:57:51;;;;;;;4.95;2.60;;;;;;;;;;4996238;28;20080;-67
2022/01/28 12:00:23;;;;;;;4.07;2.28;;;;;;;;;;4995679;28;20046;-67
2022/01/28 12:02:52;;;;;;;3.33;2.38;;;;;;;;;;4993220;28;20529;-67
2022/01/28 12:05:32;;;;;;;5.22;2.80;;;;;;;;;;4995599;28;20053;-66
2022/01/28 12:08:00;;;;;;;2.42;2.22;;;;;;;;;;4995139;28;20070;-67
2022/01/28 12:10:30;;;;;;;5.88;3.42;;;;;;;;;;4995052;28;20425;-65
2022/01/28 12:13:03;;;;;;;6.65;3.90;;;;;;;;;;4995221;28;20038;-67
2022/01/28 12:15:32;;;;;;;7.07;4.55;;;;;;;;;;4995042;28;20054;-66
2022/01/28 12:18:10;;;;;;;8.13;5.32;;;;;;;;;;4995142;28;20097;-67
2022/01/28 12:20:45;;;;;;;5.63;4.75;;;;;;;;;;4994944;28;20101;-66
2022/01/28 12:23:13;;;;;;;5.97;4.88;;;;;;;;;;4995778;28;20050;-67
2022/01/28 12:25:40;;;;;;;9.45;4.63;;;;;;;;;;4995803;28;20050;-66
2022/01/28 12:28:24;;;;;;;5.57;3.83;;;;;;;;;;4993684;28;20046;-67
2022/01/28 12:31:02;;;;;;;6.25;2.97;;;;;;;;;;4986953;28;20042;-66
2022/01/28 12:33:31;;;;;;;5.03;2.53;;;;;;;;;;4988843;28;20042;-66
2022/01/28 12:36:06;;;;;;;3.47;2.13;;;;;;;;;;4978488;28;20043;-68
2022/01/28 12:38:37;;;;;;;4.45;1.85;;;;;;;;;;4977088;28;20035;-66
2022/01/28 12:41:07;;;;;;;2.35;2.10;;;;;;;;;;4976160;28;20053;-66
2022/01/28 12:43:37;;;;;;;5.60;2.40;;;;;;;;;;4985081;28;20038;-65
2022/01/28 12:46:12;;;;;;;3.10;2.28;;;;;;;;;;4993708;28;20720;-68
2022/01/28 12:48:49;;;;;;;3.33;2.58;;;;;;;;;;4975449;28;20062;-66
2022/01/28 12:51:17;;;;;;;3.45;2.38;;;;;;;;;;4975042;28;20051;-67
2022/01/28 12:53:48;;;;;;;5.05;2.42;;;;;;;;;;4986055;28;20462;-66
2022/01/28 12:56:18;;;;;;;4.43;2.50;;;;;;;;;;4994826;28;20047;-67
2022/01/28 12:58:47;;;;;;;3.75;2.22;;;;;;;;;;4984682;28;20043;-66
2022/01/28 13:01:16;;;;;;;3.92;2.63;;;;;;;;;;4986960;28;20043;-67
2022/01/28 13:03:49;;;;;;;7.75;2.70;;;;;;;;;;4986929;28;20046;-66
2022/01/28 13:06:24;;;;;;;8.27;2.75;;;;;;;;;;4981951;28;20131;-67
2022/01/28 13:08:52;;;;;;;3.05;2.20;;;;;;;;;;4984197;28;20138;-67
2022/01/28 13:11:20;;;;;;;5.03;2.50;;;;;;;;;;4983639;28;20434;-67
2022/01/28 13:13:55;;;;;;;3.45;2.55;;;;;;;;;;4984876;28;20049;-67
2022/01/28 13:16:36;;;;;;;3.83;2.45;;;;;;;;;;4987487;28;20141;-66
2022/01/28 13:19:06;;;;;;;4.43;2.47;;;;;;;;;;4988004;28;20073;-66
2022/01/28 13:21:34;;;;;;;4.25;2.33;;;;;;;;;;4978024;28;20494;-65
2022/01/28 13:24:06;;;;;;;2.75;2.22;;;;;;;;;;4979744;28;20415;-67
2022/01/28 13:26:33;;;;;;;2.85;2.17;;;;;;;;;;4980291;28;20046;-66
2022/01/28 13:29:07;;;;;;;4.07;2.47;;;;;;;;;;4981824;28;20038;-67
2022/01/28 13:31:35;;;;;;;4.80;2.43;;;;;;;;;;4978081;28;20065;-65
2022/01/28 13:34:05;;;;;;;2.80;2.00;;;;;;;;;;4975637;28;20039;-66
2022/01/28 13:36:49;;;;;;;3.70;2.40;;;;;;;;;;4976427;28;20043;-66
2022/01/28 13:39:23;;;;;;;3.97;2.28;;;;;;;;;;4977624;28;20061;-67
2022/01/28 13:42:06;;;;;;;5.43;2.45;;;;;;;;;;4978166;28;20406;-67
2022/01/28 13:44:34;;;;;;;3.42;2.53;;;;;;;;;;4976317;28;20043;-65
2022/01/28 13:47:03;;;;;;;6.95;2.45;;;;;;;;;;4975237;28;20039;-68
2022/01/28 13:49:32;;;;;;;5.10;2.70;;;;;;;;;;4991410;28;20149;-66
2022/01/28 13:52:10;;;;;;;2.85;2.10;;;;;;;;;;4979812;28;20047;-66
2022/01/28 13:54:38;;;;;;;2.78;2.30;;;;;;;;;;4993379;28;20475;-67
2022/01/28 13:57:06;;;;;;;4.18;2.42;;;;;;;;;;4990913;28;20050;-66
2022/01/28 13:59:34;;;;;;;3.33;2.42;;;;;;;;;;4974384;28;20070;-67
2022/01/28 14:02:02;;;;;;;3.97;2.30;;;;;;;;;;4972836;28;20213;-68
2022/01/28 14:04:38;;;;;;;5.90;2.40;;;;;;;;;;4970089;28;20042;-66
2022/01/28 14:07:19;;;;;;;5.32;2.25;;;;;;;;;;4973400;28;20423;-67
2022/01/28 14:09:55;;;;;;;5.03;2.38;;;;;;;;;;4973239;28;20039;-67
2022/01/28 14:12:44;;;;;;;6.47;2.05;;;;;;;;;;4974087;28;20042;-68
2022/01/28 14:16:12;;;;;;;2.80;2.00;;;;;;;;;;4972041;28;20074;-68
2022/01/28 14:18:04;;;;;;;4.38;2.30;;;;;;;;;;4972994;28;20171;-66
2022/01/28 14:20:32;;;;;;;4.10;1.83;;;;;;;;;;4972518;28;20049;-67
2022/01/28 14:22:59;;;;;;;4.97;2.20;;;;;;;;;;4972638;28;20034;-67
2022/01/28 14:25:28;;;;;;;3.85;2.20;;;;;;;;;;4972926;28;20394;-68
2022/01/28 14:28:36;;;;;;;5.30;2.30;;;;;;;;;;4972204;28;21225;-67
2022/01/28 14:30:55;;;;;;;2.90;1.90;;;;;;;;;;4973511;28;20046;-67
2022/01/28 14:33:22;;;;;;;4.53;2.20;;;;;;;;;;4972493;28;20038;-68
2022/01/28 14:36:00;;;;;;;5.68;2.10;;;;;;;;;;4973086;28;20051;-66
2022/01/28 14:38:27;;;;;;;3.05;1.80;;;;;;;;;;4974679;28;20034;-66
2022/01/28 14:40:55;;;;;;;6.38;2.60;;;;;;;;;;4974773;28;20494;-68
2022/01/28 14:43:23;;;;;;;2.28;1.80;;;;;;;;;;4975886;28;20057;-69
2022/01/28 14:45:51;;;;;;;3.92;2.10;;;;;;;;;;4973279;28;20035;-67
2022/01/28 14:48:21;;;;;;;4.68;2.10;;;;;;;;;;4973512;28;20101;-67
2022/01/28 14:50:49;;;;;;;3.97;2.15;;;;;;;;;;4973601;28;20051;-66
2022/01/28 14:53:17;;;;;;;3.30;1.92;;;;;;;;;;4974199;28;20043;-67
2022/01/28 14:55:45;;;;;;;3.35;2.03;;;;;;;;;;4977215;28;20074;-69
2022/01/28 14:58:14;;;;;;;4.90;1.92;;;;;;;;;;4977875;28;20527;-67
2022/01/28 15:00:41;;;;;;;4.85;2.00;;;;;;;;;;4972701;28;20097;-68
2022/01/28 15:03:12;;;;;;;4.35;2.00;;;;;;;;;;4973290;28;20046;-69
2022/01/28 15:05:40;;;;;;;4.18;2.20;;;;;;;;;;4972556;28;20089;-67
2022/01/28 15:08:09;;;;;;;8.38;2.65;;;;;;;;;;4987575;28;20046;-66
2022/01/28 15:10:39;;;;;;;4.32;2.00;;;;;;;;;;4990338;28;20482;-67
2022/01/28 15:13:07;;;;;;;3.92;2.47;;;;;;;;;;4992512;28;20030;-68
2022/01/28 15:15:39;;;;;;;3.20;1.98;;;;;;;;;;4990346;28;20089;-67
2022/01/28 15:18:07;;;;;;;2.13;1.88;;;;;;;;;;4992581;28;20070;-67
2022/01/28 15:20:38;;;;;;;3.28;1.98;;;;;;;;;;4992242;28;20045;-68
2022/01/28 15:23:05;;;;;;;3.55;2.50;;;;;;;;;;4992432;28;20101;-66
2022/01/28 15:25:33;;;;;;;5.90;2.10;;;;;;;;;;4990653;28;20035;-67
2022/01/28 15:28:00;;;;;;;4.60;1.92;;;;;;;;;;4991661;28;20042;-68
2022/01/28 15:34:11;;;;;;;3.55;2.08;;;;;;;;;;4992855;28;20047;-67
2022/01/28 15:36:03;;;;;;;2.97;2.05;;;;;;;;;;4991972;28;20050;-66
2022/01/28 15:38:34;;;;;;;3.72;1.95;;;;;;;;;;4991582;28;20045;-66
2022/01/28 15:41:03;;;;;;;3.13;2.13;;;;;;;;;;4994132;28;20042;-68
2022/01/28 15:43:31;;;;;;;3.88;2.80;;;;;;;;;;4994452;28;20045;-68
2022/01/28 15:45:59;;;;;;;3.67;2.55;;;;;;;;;;4995716;28;20409;-66
2022/01/28 15:48:26;;;;;;;2.92;2.00;;;;;;;;;;4995778;28;20110;-67
2022/01/28 15:50:55;;;;;;;3.28;1.70;;;;;;;;;;4990002;28;20049;-68
2022/01/28 15:53:24;;;;;;;5.13;2.28;;;;;;;;;;4993326;28;20489;-66
2022/01/28 15:55:52;;;;;;;5.57;1.95;;;;;;;;;;4994945;28;20046;-66
2022/01/28 15:58:20;;;;;;;7.45;2.28;;;;;;;;;;4994719;28;20034;-66
2022/01/28 16:00:48;;;;;;;2.75;1.90;;;;;;;;;;4993151;28;20066;-68
2022/01/28 16:03:16;;;;;;;4.15;2.33;;;;;;;;;;4995821;28;20460;-68
2022/01/28 16:05:43;;;;;;;9.68;2.20;;;;;;;;;;4992200;28;20331;-69
2022/01/28 16:08:11;;;;;;;3.58;2.20;;;;;;;;;;4994506;28;20042;-68
2022/01/28 16:11:01;;;;;;;5.72;2.17;;;;;;;;;;4995150;28;20050;-68
2022/01/28 16:13:41;;;;;;;2.75;2.10;;;;;;;;;;4995641;28;20058;-70
2022/01/28 16:18:37;;;;;;;6.72;2.70;;;;;;;;;;4991780;28;20042;-69
2022/01/28 16:21:05;;;;;;;3.38;1.92;;;;;;;;;;4992008;28;20121;-68
2022/01/28 16:23:32;;;;;;;3.35;2.05;;;;;;;;;;4995394;28;20382;-68
2022/01/28 16:26:02;;;;;;;3.75;2.03;;;;;;;;;;4995213;28;20460;-67
2022/01/28 16:28:29;;;;;;;4.80;2.00;;;;;;;;;;4994083;28;20050;-68
2022/01/28 16:30:57;;;;;;;4.65;2.33;;;;;;;;;;4995199;28;20409;-68